Time;durP1;ratioP1;P1;durP2;ratioP2;P2;SDS_P1;SDS_P2;PMS_P1;PMS_P2;Temp;Humidity;BMP_temperature;BMP_pressure;BME280_temperature;BME280_humidity;BME280_pressure;Samples;Min_cycle;Max_cycle;Signal;HPM_P1;HPM_P2
2024/04/13 00:01:10;;;;;;;6.20;5.70;;;;;;;16.05;88.19;101442.94;5418750;26;20279;-79
2024/04/13 00:03:35;;;;;;;5.90;5.20;;;;;;;16.01;87.16;101444.78;5417802;26;20294;-78
2024/04/13 00:06:03;;;;;;;5.47;5.07;;;;;;;15.98;87.28;101451.91;5418456;26;20243;-79
2024/04/13 00:08:28;;;;;;;6.13;5.63;;;;;;;15.98;87.15;101457.19;5417276;26;20239;-78
2024/04/13 00:10:56;;;;;;;5.80;5.33;;;;;;;15.94;87.21;101456.41;5417886;26;20755;-79
2024/04/13 00:13:27;;;;;;;6.03;5.53;;;;;;;15.94;87.45;101448.50;5417989;26;20277;-78
2024/04/13 00:15:58;;;;;;;6.00;5.40;;;;;;;15.95;87.34;101454.63;5418925;26;20234;-80
2024/04/13 00:18:23;;;;;;;5.47;5.07;;;;;;;15.90;86.98;101454.75;5419187;26;20265;-79
2024/04/13 00:20:51;;;;;;;6.43;5.50;;;;;;;15.88;87.31;101459.19;5420537;26;20234;-79
2024/04/13 00:23:17;;;;;;;5.73;5.33;;;;;;;15.86;87.33;101453.09;5418332;26;20262;-79
2024/04/13 00:25:51;;;;;;;7.70;5.57;;;;;;;15.85;86.72;101460.09;5419268;26;20235;-79
2024/04/13 00:28:16;;;;;;;6.00;5.50;;;;;;;15.80;87.21;101462.00;5417290;26;20273;-77
2024/04/13 00:30:47;;;;;;;5.87;5.37;;;;;;;15.74;87.59;101454.25;5417096;26;20236;-79
2024/04/13 00:33:13;;;;;;;6.33;5.83;;;;;;;15.73;87.31;101455.13;5417923;26;20304;-78
2024/04/13 00:35:41;;;;;;;6.80;6.30;;;;;;;15.65;88.23;101450.03;5417301;26;20238;-78
2024/04/13 00:38:08;;;;;;;5.90;5.50;;;;;;;15.65;88.30;101434.22;5416333;26;20227;-78
2024/04/13 00:40:36;;;;;;;5.67;5.23;;;;;;;15.69;88.10;101435.03;5417220;26;20246;-78
2024/04/13 00:43:05;;;;;;;6.60;6.00;;;;;;;15.67;87.51;101436.81;5417097;26;20788;-78
2024/04/13 00:45:42;;;;;;;5.83;5.43;;;;;;;15.62;88.11;101436.94;5416486;26;20231;-78
2024/04/13 00:48:14;;;;;;;6.70;6.20;;;;;;;15.62;87.81;101442.22;5416660;26;20239;-79
2024/04/13 00:50:40;;;;;;;6.43;5.93;;;;;;;15.58;87.87;101440.56;5416720;26;20774;-78
2024/04/13 00:53:11;;;;;;;6.80;6.20;;;;;;;15.57;88.07;101419.53;5407014;26;20239;-79
2024/04/13 00:55:36;;;;;;;6.77;6.07;;;;;;;15.57;88.30;101409.88;5416755;26;20242;-79
2024/04/13 00:58:05;;;;;;;6.67;6.17;;;;;;;15.53;89.54;101404.72;5416689;26;20528;-79
2024/04/13 01:00:31;;;;;;;6.57;5.97;;;;;;;15.49;89.76;101388.13;5416720;26;20235;-78
2024/04/13 01:03:00;;;;;;;7.50;6.03;;;;;;;15.51;89.00;101398.63;5416461;26;20234;-79
2024/04/13 01:05:29;;;;;;;6.87;6.30;;;;;;;15.38;89.98;101377.88;5416430;26;20266;-79
2024/04/13 01:07:57;;;;;;;6.60;6.10;;;;;;;15.43;90.66;101368.09;5415739;26;20238;-77
2024/04/13 01:10:23;;;;;;;8.00;7.40;;;;;;;15.46;89.59;101373.28;5416392;26;20289;-79
2024/04/13 01:12:51;;;;;;;7.43;6.83;;;;;;;15.44;89.92;101359.31;5409081;26;20790;-78
2024/04/13 01:15:17;;;;;;;7.20;6.50;;;;;;;15.47;89.38;101375.00;5409449;26;20230;-79
2024/04/13 01:17:46;;;;;;;6.50;6.00;;;;;;;15.49;89.31;101372.34;5415838;26;20239;-76
2024/04/13 01:20:12;;;;;;;7.13;6.47;;;;;;;15.41;89.36;101379.56;5416247;26;20286;-77
2024/04/13 01:22:47;;;;;;;7.10;6.60;;;;;;;15.38;90.58;101363.84;5416221;26;20269;-78
2024/04/13 01:25:15;;;;;;;7.70;6.77;;;;;;;15.41;90.25;101358.53;5415423;26;20688;-79
2024/04/13 01:27:43;;;;;;;7.57;6.80;;;;;;;15.43;90.01;101372.50;5416176;26;20635;-78
2024/04/13 01:30:11;;;;;;;7.37;6.77;;;;;;;15.42;89.64;101379.53;5415807;26;20733;-77
2024/04/13 01:32:40;;;;;;;6.73;6.23;;;;;;;15.46;89.42;101373.28;5415804;26;20231;-79
2024/04/13 01:35:09;;;;;;;7.40;6.70;;;;;;;15.39;89.79;101366.44;5415959;26;20230;-79
2024/04/13 01:37:38;;;;;;;7.80;7.07;;;;;;;15.36;90.53;101368.28;5417612;26;20278;-79
2024/04/13 01:40:06;;;;;;;8.30;7.10;;;;;;;15.24;92.34;101351.00;5417279;26;20226;-79
2024/04/13 01:42:37;;;;;;;6.93;6.43;;;;;;;15.28;91.54;101342.16;5418614;26;20289;-79
2024/04/13 01:45:03;;;;;;;7.37;6.87;;;;;;;15.32;91.23;101348.22;5417416;26;20413;-79
2024/04/13 01:47:32;;;;;;;7.57;6.97;;;;;;;15.36;90.99;101345.50;5418312;26;20284;-79
2024/04/13 01:49:57;;;;;;;8.63;7.17;;;;;;;15.37;90.66;101346.34;5417884;26;20235;-79
2024/04/13 01:52:25;;;;;;;7.57;7.00;;;;;;;15.31;91.21;101342.09;5418076;26;20276;-79
2024/04/13 01:54:51;;;;;;;7.83;6.53;;;;;;;15.28;91.87;101326.38;5417092;26;20270;-79
2024/04/13 01:57:19;;;;;;;7.63;7.03;;;;;;;15.25;91.82;101322.06;5419040;26;20242;-79
2024/04/13 01:59:47;;;;;;;7.70;7.10;;;;;;;15.19;91.89;101316.09;5417309;26;20231;-76
2024/04/13 02:02:15;;;;;;;10.53;8.53;;;;;;;15.23;94.90;101276.50;5417761;26;20277;-80
2024/04/13 02:04:41;;;;;;;8.97;8.07;;;;;;;15.23;93.43;101280.91;5417306;26;20277;-79
2024/04/13 02:07:09;;;;;;;7.80;7.20;;;;;;;15.29;93.03;101286.03;5417842;26;20243;-79
2024/04/13 02:09:35;;;;;;;8.70;7.90;;;;;;;15.24;93.01;101286.16;5416645;26;20235;-79
2024/04/13 02:12:03;;;;;;;9.00;8.40;;;;;;;15.18;93.63;101275.78;5417721;26;20235;-79
2024/04/13 02:14:28;;;;;;;9.67;8.77;;;;;;;15.10;94.64;101277.72;5416256;26;20566;-79
2024/04/13 02:16:59;;;;;;;9.03;8.33;;;;;;;15.06;96.42;101247.13;5416347;26;20265;-78
2024/04/13 02:19:24;;;;;;;8.37;7.77;;;;;;;15.16;95.84;101243.38;5416465;26;20231;-78
2024/04/13 02:21:52;;;;;;;7.57;6.97;;;;;;;15.21;94.82;101264.31;5417526;26;20277;-79
2024/04/13 02:24:18;;;;;;;8.20;7.37;;;;;;;15.20;93.92;101283.59;5416313;26;20243;-80
2024/04/13 02:26:46;;;;;;;8.23;7.63;;;;;;;15.16;93.72;101290.69;5418150;26;20292;-78
2024/04/13 02:29:11;;;;;;;7.90;7.20;;;;;;;15.23;92.88;101292.28;5417152;26;20234;-79
2024/04/13 02:31:40;;;;;;;8.40;7.57;;;;;;;15.24;92.27;101303.66;5417150;26;20226;-79
2024/04/13 02:34:08;;;;;;;8.07;7.47;;;;;;;15.19;92.12;101308.19;5417776;26;20733;-78
2024/04/13 02:36:35;;;;;;;7.77;6.97;;;;;;;15.21;92.54;101312.50;5416602;26;20270;-78
2024/04/13 02:39:01;;;;;;;7.10;6.60;;;;;;;15.24;91.76;101309.81;5416572;26;20277;-79
2024/04/13 02:41:29;;;;;;;7.47;6.67;;;;;;;15.24;91.47;101324.72;5416946;26;20630;-79
2024/04/13 02:43:55;;;;;;;7.27;6.67;;;;;;;15.18;91.14;101328.38;5416486;26;20354;-79
2024/04/13 02:46:23;;;;;;;7.67;6.97;;;;;;;15.18;92.28;101311.72;5417324;26;20725;-79
2024/04/13 02:48:49;;;;;;;8.67;7.97;;;;;;;15.20;92.45;101309.91;5416443;26;20231;-79
2024/04/13 02:51:19;;;;;;;7.53;6.93;;;;;;;15.23;91.99;101307.22;5416948;26;20290;-79
2024/04/13 02:53:45;;;;;;;7.37;6.87;;;;;;;15.14;91.67;101318.81;5410976;26;20235;-79
2024/04/13 02:56:13;;;;;;;7.90;6.67;;;;;;;15.14;91.70;101318.81;5407724;26;20235;-79
2024/04/13 02:58:38;;;;;;;7.63;6.93;;;;;;;15.14;91.41;101323.22;5416329;26;20231;-78
2024/04/13 03:01:07;;;;;;;6.83;6.30;;;;;;;15.13;90.46;101327.59;5417047;26;20286;-79
2024/04/13 03:03:32;;;;;;;7.43;6.90;;;;;;;15.09;90.15;101336.47;5416409;26;20230;-77
2024/04/13 03:06:02;;;;;;;7.87;7.20;;;;;;;15.02;90.73;101334.88;5417481;26;20276;-77
2024/04/13 03:08:31;;;;;;;6.87;6.33;;;;;;;15.00;90.19;101328.78;5416124;26;20640;-79
2024/04/13 03:11:02;;;;;;;7.27;6.63;;;;;;;14.97;90.41;101331.50;5416337;26;20269;-79
2024/04/13 03:13:28;;;;;;;6.80;6.20;;;;;;;14.95;90.46;101323.66;5416467;26;20235;-78
2024/04/13 03:16:01;;;;;;;7.90;7.20;;;;;;;14.94;90.35;101329.78;5416026;26;20238;-79
2024/04/13 03:18:27;;;;;;;7.73;6.57;;;;;;;14.93;90.14;101328.06;5416013;26;20282;-79
2024/04/13 03:20:55;;;;;;;6.50;6.00;;;;;;;14.95;89.91;101333.31;5415989;26;20763;-79
2024/04/13 03:23:21;;;;;;;7.13;6.63;;;;;;;14.94;90.99;101321.91;5414664;26;20738;-79
2024/04/13 03:25:51;;;;;;;8.27;7.57;;;;;;;14.92;90.80;101325.47;5415815;26;20335;-79
2024/04/13 03:28:21;;;;;;;7.53;7.03;;;;;;;14.93;90.52;101322.81;5416504;26;20235;-79
2024/04/13 03:30:49;;;;;;;7.83;7.13;;;;;;;14.94;90.13;101319.28;5418964;26;20238;-78
2024/04/13 03:33:14;;;;;;;7.90;7.27;;;;;;;14.84;90.89;101321.25;5419159;26;20236;-79
2024/04/13 03:35:42;;;;;;;7.90;7.30;;;;;;;14.80;90.67;101314.31;5419472;26;20265;-79
2024/04/13 03:38:10;;;;;;;7.50;6.87;;;;;;;14.77;91.25;101311.78;5418221;26;20239;-79
2024/04/13 03:40:36;;;;;;;8.53;7.90;;;;;;;14.80;90.84;101321.34;5419861;26;20223;-79
2024/04/13 03:43:06;;;;;;;7.93;7.27;;;;;;;14.78;91.16;101316.13;5419272;26;20239;-79
2024/04/13 03:45:32;;;;;;;7.93;7.33;;;;;;;14.81;90.38;101323.09;5418544;26;20620;-78
2024/04/13 03:48:00;;;;;;;8.77;8.07;;;;;;;14.82;90.67;101320.41;5418843;26;20238;-79
2024/04/13 03:50:25;;;;;;;8.67;7.97;;;;;;;14.78;90.46;101329.28;5419382;26;20314;-78
2024/04/13 03:52:54;;;;;;;8.07;7.37;;;;;;;14.74;90.76;101329.38;5418872;26;20295;-77
2024/04/13 03:55:19;;;;;;;8.40;7.80;;;;;;;14.68;91.35;101314.59;5419093;26;20234;-79
2024/04/13 03:57:47;;;;;;;8.40;7.70;;;;;;;14.70;91.03;101320.69;5419457;26;20282;-79
2024/04/13 04:00:16;;;;;;;8.50;7.90;;;;;;;14.71;91.24;101314.56;5418954;26;20235;-79
2024/04/13 04:02:44;;;;;;;7.83;7.23;;;;;;;14.71;91.29;101311.94;5418255;26;20235;-79
2024/04/13 04:05:10;;;;;;;8.73;7.97;;;;;;;14.66;91.08;101313.78;5419652;26;20231;-79
2024/04/13 04:07:38;;;;;;;8.50;7.50;;;;;;;14.67;90.90;101315.53;5418834;26;20277;-79
2024/04/13 04:10:05;;;;;;;9.03;8.10;;;;;;;14.65;91.46;101305.03;5417340;26;20231;-79
2024/04/13 04:12:33;;;;;;;7.87;7.20;;;;;;;14.68;91.59;101302.31;5419377;26;20282;-78
2024/04/13 04:14:58;;;;;;;7.23;6.73;;;;;;;14.66;91.62;101296.25;5418323;26;20265;-79
2024/04/13 04:17:29;;;;;;;8.40;7.80;;;;;;;14.62;91.61;101306.84;5418862;26;20239;-79
2024/04/13 04:19:54;;;;;;;8.27;7.57;;;;;;;14.61;91.85;101303.38;5413260;26;20745;-79
2024/04/13 04:22:22;;;;;;;8.53;7.80;;;;;;;14.62;91.79;101299.84;5408994;26;20331;-78
2024/04/13 04:24:48;;;;;;;8.87;8.17;;;;;;;14.52;92.94;101287.78;5417684;26;20273;-79
2024/04/13 04:27:16;;;;;;;7.90;7.30;;;;;;;14.50;93.00;101281.69;5419576;26;20242;-78
2024/04/13 04:29:43;;;;;;;8.40;7.60;;;;;;;14.47;93.67;101266.84;5417833;26;20230;-79
2024/04/13 04:32:11;;;;;;;8.13;7.37;;;;;;;14.54;93.41;101266.72;5418545;26;20280;-79
2024/04/13 04:34:39;;;;;;;7.87;7.27;;;;;;;14.56;92.44;101285.94;5417762;26;20269;-79
2024/04/13 04:37:07;;;;;;;8.33;7.73;;;;;;;14.55;92.98;101282.47;5418476;26;21004;-79
2024/04/13 04:39:32;;;;;;;8.77;8.07;;;;;;;14.56;92.71;101294.72;5417058;26;20697;-79
2024/04/13 04:42:00;;;;;;;8.47;7.73;;;;;;;14.53;92.40;101297.41;5418174;26;20235;-78
2024/04/13 04:44:26;;;;;;;10.00;9.03;;;;;;;14.51;94.03;101286.06;5418459;26;20238;-79
2024/04/13 04:46:54;;;;;;;8.33;7.70;;;;;;;14.55;93.91;101277.22;5417690;26;20288;-79
2024/04/13 04:49:19;;;;;;;7.97;7.27;;;;;;;14.57;93.49;101282.44;5418744;26;20230;-79
2024/04/13 04:51:50;;;;;;;8.17;7.53;;;;;;;14.59;93.03;101297.28;5416539;26;20269;-79
2024/04/13 04:54:15;;;;;;;9.50;7.73;;;;;;;14.60;93.13;101298.16;5417492;26;20231;-79
2024/04/13 04:56:43;;;;;;;7.90;7.17;;;;;;;14.62;93.11;101299.84;5418907;26;20289;-79
2024/04/13 04:59:08;;;;;;;8.73;7.97;;;;;;;14.58;94.30;101297.31;5418243;26;20231;-79
2024/04/13 05:01:36;;;;;;;9.50;8.60;;;;;;;14.59;94.34;101286.78;5418689;26;20269;-78
2024/04/13 05:04:04;;;;;;;8.13;7.33;;;;;;;14.65;94.29;101283.16;5418618;26;20231;-79
2024/04/13 05:06:30;;;;;;;10.90;8.73;;;;;;;14.57;95.00;101275.44;5417916;26;20706;-78
2024/04/13 05:09:00;;;;;;;9.27;8.37;;;;;;;14.58;96.92;101244.78;5417000;26;20256;-78
2024/04/13 05:11:26;;;;;;;9.33;8.47;;;;;;;14.68;97.07;101235.78;5418676;26;20243;-78
2024/04/13 05:13:54;;;;;;;10.33;9.37;;;;;;;14.79;96.00;101256.56;5417010;26;20240;-79
2024/04/13 05:16:19;;;;;;;10.67;9.57;;;;;;;14.80;96.90;101243.34;5418388;26;20227;-78
2024/04/13 05:18:47;;;;;;;9.57;8.70;;;;;;;14.92;96.01;101254.50;5417446;26;20274;-79
2024/04/13 05:21:12;;;;;;;9.80;9.00;;;;;;;14.98;95.12;101270.97;5418027;26;20239;-79
2024/04/13 05:23:41;;;;;;;9.40;8.57;;;;;;;15.02;94.75;101277.03;5416492;26;20277;-79
2024/04/13 05:26:09;;;;;;;9.43;8.50;;;;;;;15.04;94.63;101284.00;5418288;26;20243;-78
2024/04/13 05:28:37;;;;;;;11.53;9.57;;;;;;;15.06;95.18;101278.69;5417310;26;20239;-76
2024/04/13 05:31:09;;;;;;;9.10;8.30;;;;;;;15.10;94.94;101275.06;5417111;26;20591;-79
2024/04/13 05:33:38;;;;;;;9.07;8.27;;;;;;;15.08;95.88;101267.25;5417328;26;20269;-76
2024/04/13 05:36:04;;;;;;;10.27;9.27;;;;;;;15.08;96.55;101256.72;5417799;26;20231;-78
2024/04/13 05:38:32;;;;;;;9.40;8.60;;;;;;;15.18;96.49;101253.84;5416171;26;20285;-77
2024/04/13 05:40:58;;;;;;;9.60;8.90;;;;;;;15.22;96.11;101266.03;5418089;26;20277;-78
2024/04/13 05:43:29;;;;;;;9.33;8.43;;;;;;;15.24;95.80;101272.09;5418446;26;20283;-78
2024/04/13 05:45:55;;;;;;;10.43;8.93;;;;;;;15.37;94.95;101281.44;5416663;26;20228;-77
2024/04/13 05:48:23;;;;;;;11.83;8.27;;;;;;;15.52;94.42;101288.09;5416947;26;20239;-79
2024/04/13 05:50:52;;;;;;;9.40;7.47;;;;;;;15.59;93.22;101309.81;5417847;26;20304;-79
2024/04/13 05:53:20;;;;;;;9.63;8.83;;;;;;;15.58;93.25;101330.03;5414233;26;20239;-78
2024/04/13 05:55:46;;;;;;;8.93;8.20;;;;;;;15.58;93.84;101323.88;5417604;26;20596;-79
2024/04/13 05:58:14;;;;;;;8.00;7.40;;;;;;;15.47;94.93;101298.69;5416978;26;20777;-77
2024/04/13 06:00:42;;;;;;;8.57;7.77;;;;;;;15.66;94.03;101308.78;5415653;26;20239;-78
2024/04/13 06:03:10;;;;;;;8.33;7.60;;;;;;;15.80;92.33;101319.84;5418476;26;20234;-79
2024/04/13 06:05:35;;;;;;;8.90;8.00;;;;;;;15.67;92.56;101347.34;5417686;26;20729;-78
2024/04/13 06:08:04;;;;;;;10.40;7.80;;;;;;;15.80;92.66;101332.13;5416086;26;20278;-79
2024/04/13 06:10:32;;;;;;;9.07;8.20;;;;;;;15.82;92.75;101332.97;5417224;26;20270;-79
2024/04/13 06:12:58;;;;;;;8.47;7.40;;;;;;;15.85;91.94;101346.88;5416366;26;20231;-79
2024/04/13 06:15:26;;;;;;;8.80;8.10;;;;;;;15.99;92.44;101343.03;5417747;26;20241;-78
2024/04/13 06:17:54;;;;;;;7.53;6.97;;;;;;;15.94;91.92;101344.94;5416211;26;20293;-78
2024/04/13 06:20:22;;;;;;;7.77;7.10;;;;;;;16.14;92.38;101345.25;5416438;26;20989;-78
2024/04/13 06:22:47;;;;;;;8.17;7.37;;;;;;;16.19;91.74;101353.88;5401816;26;20254;-78
2024/04/13 06:25:16;;;;;;;7.30;6.60;;;;;;;16.24;91.90;101354.63;5416483;26;20287;-78
2024/04/13 06:27:41;;;;;;;7.70;7.00;;;;;;;16.17;90.48;101375.91;5416686;26;20240;-78
2024/04/13 06:30:13;;;;;;;6.93;6.33;;;;;;;16.26;90.07;101381.78;5416734;26;20778;-79
2024/04/13 06:32:38;;;;;;;7.80;6.67;;;;;;;16.40;89.92;101399.84;5415472;26;20227;-75
2024/04/13 06:35:09;;;;;;;7.17;6.57;;;;;;;16.53;88.87;101399.50;5414791;26;20236;-78
2024/04/13 06:37:35;;;;;;;9.07;6.53;;;;;;;16.64;88.75;101407.97;5414659;26;20282;-78
2024/04/13 06:40:03;;;;;;;7.20;6.60;;;;;;;16.68;89.06;101413.09;5413578;26;20231;-78
2024/04/13 06:42:29;;;;;;;6.37;5.87;;;;;;;16.64;86.47;101440.47;5414754;26;20985;-78
2024/04/13 06:44:57;;;;;;;8.57;5.47;;;;;;;16.81;86.75;101445.31;5413503;26;20272;-78
2024/04/13 06:47:22;;;;;;;7.00;5.60;;;;;;;16.80;85.88;101463.78;5413029;26;20247;-76
2024/04/13 06:49:50;;;;;;;6.90;6.23;;;;;;;16.71;85.59;101477.19;5410037;26;20895;-78
2024/04/13 06:52:18;;;;;;;6.33;5.73;;;;;;;16.72;85.70;101474.53;5414141;26;20270;-78
2024/04/13 06:54:46;;;;;;;9.17;5.27;;;;;;;16.79;84.61;101513.03;5413989;26;20245;-77
2024/04/13 06:57:12;;;;;;;5.93;5.27;;;;;;;16.97;84.50;101511.66;5414700;26;20233;-77
2024/04/13 06:59:40;;;;;;;5.90;5.50;;;;;;;16.90;84.55;101511.88;5412791;26;20275;-79
2024/04/13 07:02:05;;;;;;;7.60;5.53;;;;;;;16.93;84.07;101514.44;5411745;26;20610;-78
2024/04/13 07:04:33;;;;;;;6.20;5.60;;;;;;;17.04;84.20;101507.94;5414335;26;20240;-78
2024/04/13 07:06:59;;;;;;;7.67;5.27;;;;;;;16.92;83.50;101517.97;5415113;26;20593;-79
2024/04/13 07:09:29;;;;;;;5.37;4.90;;;;;;;17.03;83.03;101540.50;5417742;26;20277;-80
2024/04/13 07:11:57;;;;;;;6.27;5.27;;;;;;;17.17;82.70;101528.72;5418970;26;20235;-76
2024/04/13 07:14:24;;;;;;;7.37;5.00;;;;;;;17.18;82.64;101525.16;5418420;26;20637;-79
2024/04/13 07:16:50;;;;;;;5.27;4.77;;;;;;;17.21;80.08;101570.78;5418208;26;20241;-76
2024/04/13 07:19:19;;;;;;;4.73;4.27;;;;;;;17.02;80.28;101598.59;5418779;26;20812;-78
2024/04/13 07:21:44;;;;;;;7.57;4.80;;;;;;;17.23;80.26;101599.78;5417876;26;20738;-78
2024/04/13 07:24:12;;;;;;;4.43;4.00;;;;;;;17.22;77.21;101629.69;5416366;26;20234;-80
2024/04/13 07:26:41;;;;;;;4.90;3.77;;;;;;;17.19;76.12;101682.56;5418027;26;20236;-79
2024/04/13 07:29:09;;;;;;;4.33;3.90;;;;;;;17.45;77.50;101676.56;5417071;26;20239;-77
2024/04/13 07:31:34;;;;;;;3.83;3.47;;;;;;;17.53;76.87;101684.28;5418311;26;20233;-77
2024/04/13 07:34:02;;;;;;;4.47;3.67;;;;;;;17.30;74.87;101698.97;5402680;26;20279;-78
2024/04/13 07:36:28;;;;;;;4.17;3.20;;;;;;;17.51;75.36;101708.09;5417785;26;20630;-78
2024/04/13 07:38:56;;;;;;;3.53;3.23;;;;;;;17.66;75.72;101720.00;5414417;26;20236;-78
2024/04/13 07:41:22;;;;;;;4.63;3.60;;;;;;;17.67;75.68;101741.06;5416649;26;20568;-78
2024/04/13 07:43:52;;;;;;;3.87;3.57;;;;;;;17.74;74.95;101730.34;5416165;26;20271;-78
2024/04/13 07:46:18;;;;;;;6.17;3.93;;;;;;;17.71;75.13;101733.94;5412933;26;20282;-74
2024/04/13 07:48:47;;;;;;;5.10;4.00;;;;;;;17.76;73.73;101766.38;5416378;26;20366;-78
2024/04/13 07:51:12;;;;;;;2.80;2.60;;;;;;;17.73;72.21;101794.63;5416896;26;20288;-78
2024/04/13 07:53:40;;;;;;;3.13;2.60;;;;;;;17.56;71.92;101837.31;5416602;26;20336;-77
2024/04/13 07:56:06;;;;;;;4.97;2.90;;;;;;;17.83;72.15;101826.06;5417553;26;20232;-78
2024/04/13 07:58:34;;;;;;;3.10;2.73;;;;;;;17.70;72.40;101822.00;5417838;26;20244;-78
2024/04/13 08:01:03;;;;;;;3.47;2.87;;;;;;;17.76;71.38;101836.78;5416898;26;20279;-80
2024/04/13 08:03:31;;;;;;;3.30;2.83;;;;;;;17.64;70.51;101853.81;5417597;26;20266;-78
2024/04/13 08:05:56;;;;;;;2.70;2.50;;;;;;;17.94;71.69;101839.00;5417476;26;20239;-77
2024/04/13 08:08:25;;;;;;;3.03;2.43;;;;;;;17.96;69.95;101881.25;5417093;26;20229;-77
2024/04/13 08:10:51;;;;;;;5.10;2.97;;;;;;;17.92;69.58;101890.13;5417647;26;20232;-78
2024/04/13 08:13:19;;;;;;;2.87;2.67;;;;;;;17.94;69.87;101906.81;5417858;26;20279;-77
2024/04/13 08:15:44;;;;;;;11.50;3.60;;;;;;;17.96;70.19;101894.44;5415591;26;20793;-76
2024/04/13 08:18:15;;;;;;;3.30;2.43;;;;;;;17.97;68.03;101930.50;5417350;26;20257;-79
2024/04/13 08:20:40;;;;;;;3.40;2.30;;;;;;;18.01;68.00;101935.66;5416801;26;20749;-78
2024/04/13 08:23:08;;;;;;;5.10;2.97;;;;;;;18.21;68.37;101940.44;5415962;26;20268;-76
2024/04/13 08:25:34;;;;;;;4.00;2.60;;;;;;;18.17;68.82;101940.56;5416295;26;20268;-77
2024/04/13 08:28:02;;;;;;;4.13;2.60;;;;;;;18.24;68.89;101928.94;5417343;26;20252;-76
2024/04/13 08:30:27;;;;;;;4.83;2.80;;;;;;;18.20;69.28;101933.41;5412311;26;20275;-77
2024/04/13 08:32:55;;;;;;;3.87;2.77;;;;;;;18.41;70.20;101902.91;5416246;26;20242;-76
2024/04/13 08:35:23;;;;;;;4.37;2.87;;;;;;;18.50;69.44;101899.13;5399851;26;20268;-78
2024/04/13 08:37:51;;;;;;;2.93;2.60;;;;;;;18.41;68.56;101933.72;5417006;26;20304;-75
2024/04/13 08:40:17;;;;;;;5.30;3.13;;;;;;;18.46;68.50;101935.34;5413920;26;20802;-77
2024/04/13 08:42:46;;;;;;;3.30;2.90;;;;;;;18.42;68.69;101964.56;5414336;26;20296;-76
2024/04/13 08:45:12;;;;;;;2.80;2.50;;;;;;;18.46;68.42;101939.78;5412856;26;20888;-78
2024/04/13 08:47:42;;;;;;;3.60;2.47;;;;;;;18.59;69.77;101940.28;5413259;26;20319;-78
2024/04/13 08:50:08;;;;;;;3.00;2.53;;;;;;;18.43;69.42;101910.75;5413801;26;20237;-77
2024/04/13 08:52:39;;;;;;;4.07;3.30;;;;;;;18.42;71.35;101879.97;5413667;26;20630;-77
2024/04/13 08:55:06;;;;;;;3.90;3.13;;;;;;;18.63;72.18;101842.31;5415769;26;20282;-77
2024/04/13 08:57:35;;;;;;;4.60;2.93;;;;;;;18.53;69.12;101867.31;5417110;26;20239;-78
2024/04/13 09:00:03;;;;;;;4.03;2.90;;;;;;;18.73;70.59;101857.88;5417292;26;20237;-77
2024/04/13 09:02:34;;;;;;;3.67;3.10;;;;;;;18.77;70.40;101846.28;5416981;26;20369;-77
2024/04/13 09:05:02;;;;;;;3.57;2.77;;;;;;;18.92;70.37;101837.06;5416046;26;20239;-78
2024/04/13 09:07:34;;;;;;;3.20;2.73;;;;;;;18.70;68.03;101884.44;5416086;26;20237;-77
2024/04/13 09:10:04;;;;;;;3.30;3.10;;;;;;;18.89;69.97;101859.19;5415210;26;20275;-77
2024/04/13 09:12:32;;;;;;;2.63;2.37;;;;;;;18.87;68.24;101890.13;5416851;26;20234;-77
2024/04/13 09:15:00;;;;;;;3.03;2.13;;;;;;;18.79;68.60;101906.25;5416560;26;20842;-79
2024/04/13 09:17:28;;;;;;;3.20;2.10;;;;;;;19.10;68.05;101892.06;5417883;26;20246;-78
2024/04/13 09:19:55;;;;;;;2.57;2.10;;;;;;;19.10;66.50;101915.00;5418137;26;20230;-78
2024/04/13 09:22:26;;;;;;;8.00;3.10;;;;;;;19.30;68.11;101909.09;5419012;26;20244;-78
2024/04/13 09:24:51;;;;;;;2.53;2.33;;;;;;;19.27;68.70;101895.97;5417483;26;20237;-78
2024/04/13 09:27:23;;;;;;;4.43;3.17;;;;;;;19.35;69.05;101867.47;5417968;26;20276;-78
2024/04/13 09:29:49;;;;;;;2.83;2.60;;;;;;;19.23;68.38;101874.00;5418385;26;20311;-80
2024/04/13 09:32:27;;;;;;;3.10;2.47;;;;;;;19.19;68.81;101875.03;5418210;26;20898;-78
2024/04/13 09:34:54;;;;;;;3.97;2.53;;;;;;;19.38;71.05;101827.63;5419658;26;20237;-79
2024/04/13 09:37:23;;;;;;;2.60;2.40;;;;;;;19.35;68.96;101844.47;5419439;26;20243;-79
2024/04/13 09:39:48;;;;;;;2.13;1.83;;;;;;;19.35;68.68;101846.28;5418445;26;20245;-79
2024/04/13 09:42:24;;;;;;;3.13;1.95;;;;;;;19.51;68.48;101875.75;4758335;26;10001798;-78
2024/04/13 09:44:52;;;;;;;4.80;2.37;;;;;;;19.43;68.70;101874.22;5417322;26;20747;-78
2024/04/13 09:47:23;;;;;;;4.10;2.40;;;;;;;19.52;69.08;101870.38;5417766;26;20781;-79
2024/04/13 09:49:48;;;;;;;2.40;2.20;;;;;;;19.47;70.12;101845.00;5415017;26;20355;-79
2024/04/13 09:52:17;;;;;;;3.43;2.37;;;;;;;19.66;69.11;101838.13;5412862;26;20246;-78
2024/04/13 09:54:43;;;;;;;2.93;2.30;;;;;;;19.80;68.61;101845.63;5409482;26;20227;-78
2024/04/13 09:57:13;;;;;;;2.40;2.07;;;;;;;19.86;67.95;101860.47;5410251;26;20322;-76
2024/04/13 09:59:41;;;;;;;2.63;2.43;;;;;;;19.89;68.64;101850.63;5409405;26;20310;-78
2024/04/13 10:02:12;;;;;;;2.30;2.10;;;;;;;19.80;67.50;101875.66;5409811;26;20341;-79
2024/04/13 10:04:38;;;;;;;2.40;2.10;;;;;;;19.91;69.00;101840.84;5409216;26;20232;-78
2024/04/13 10:07:08;;;;;;;2.40;2.10;;;;;;;19.88;69.47;101824.16;5410002;26;20886;-79
2024/04/13 10:09:35;;;;;;;2.80;2.17;;;;;;;19.69;69.05;101816.00;5411712;26;20724;-79
2024/04/13 10:12:05;;;;;;;2.97;2.30;;;;;;;19.68;71.01;101787.75;5413070;26;20577;-77
2024/04/13 10:14:34;;;;;;;2.80;2.40;;;;;;;19.86;70.24;101783.59;5404875;26;20238;-79
2024/04/13 10:17:03;;;;;;;5.17;2.40;;;;;;;19.92;69.57;101784.28;5406209;26;20234;-79
2024/04/13 10:19:32;;;;;;;2.60;2.13;;;;;;;20.15;70.21;101778.09;5412839;26;20233;-80
2024/04/13 10:22:01;;;;;;;3.10;2.57;;;;;;;20.00;67.35;101815.81;5412145;26;20278;-78
2024/04/13 10:24:27;;;;;;;2.77;2.23;;;;;;;20.24;69.82;101792.81;5412007;26;20269;-78
2024/04/13 10:26:55;;;;;;;2.30;2.20;;;;;;;20.15;68.16;101780.75;5413316;26;20288;-79
2024/04/13 10:29:25;;;;;;;2.30;2.17;;;;;;;20.48;68.45;101800.75;5412219;26;20238;-79
2024/04/13 10:31:54;;;;;;;2.53;2.00;;;;;;;20.62;67.71;101790.50;5412787;26;20277;-79
2024/04/13 10:34:24;;;;;;;2.57;2.10;;;;;;;20.52;67.22;101839.50;5412167;26;20267;-79
2024/04/13 10:36:59;;;;;;;3.33;2.10;;;;;;;20.56;68.39;101838.47;5413809;26;20586;-79
2024/04/13 10:39:24;;;;;;;2.60;2.40;;;;;;;20.63;67.67;101805.47;5414202;26;20230;-79
2024/04/13 10:41:52;;;;;;;2.60;2.10;;;;;;;20.59;67.31;101828.63;5416173;26;20290;-79
2024/04/13 10:44:23;;;;;;;2.20;1.87;;;;;;;20.49;67.12;101844.91;5415452;26;20247;-78
2024/04/13 10:46:52;;;;;;;2.80;2.37;;;;;;;20.68;67.23;101830.06;5416700;26;20916;-79
2024/04/13 10:49:18;;;;;;;4.07;2.17;;;;;;;20.63;66.06;101855.88;5415501;26;20803;-79
2024/04/13 10:51:46;;;;;;;2.80;2.03;;;;;;;20.65;66.52;101853.19;5415991;26;20298;-78
2024/04/13 10:54:14;;;;;;;2.90;1.97;;;;;;;20.60;66.82;101861.34;5414492;26;20708;-81
2024/04/13 10:56:45;;;;;;;2.67;2.10;;;;;;;20.58;67.69;101823.34;5416283;26;20318;-78
2024/04/13 10:59:10;;;;;;;2.93;2.17;;;;;;;20.49;66.20;101851.06;5416693;26;20239;-78
2024/04/13 11:01:43;;;;;;;3.07;2.30;;;;;;;20.73;66.59;101821.91;5416383;26;20241;-79
2024/04/13 11:04:10;;;;;;;3.97;1.83;;;;;;;20.78;66.49;101828.75;5415329;26;20231;-79
2024/04/13 11:06:41;;;;;;;4.40;2.30;;;;;;;20.77;66.31;101850.94;5415881;26;20256;-79
2024/04/13 11:09:07;;;;;;;2.80;1.90;;;;;;;20.98;67.19;101830.63;5416220;26;20244;-78
2024/04/13 11:11:37;;;;;;;1.80;1.70;;;;;;;21.33;65.70;101820.34;5416213;26;20238;-79
2024/04/13 11:14:03;;;;;;;2.10;1.90;;;;;;;21.27;65.00;101833.88;5417381;26;20276;-79
2024/04/13 11:16:31;;;;;;;2.17;2.07;;;;;;;21.51;63.79;101873.69;5415433;26;20234;-79
2024/04/13 11:18:56;;;;;;;3.20;2.00;;;;;;;21.57;64.18;101889.38;5416645;26;20231;-79
2024/04/13 11:21:27;;;;;;;3.10;2.77;;;;;;;21.48;63.72;101892.38;5416459;26;20769;-79
2024/04/13 11:23:52;;;;;;;4.40;2.57;;;;;;;21.54;62.98;101892.13;5414726;26;20720;-80
2024/04/13 11:26:21;;;;;;;2.73;2.07;;;;;;;21.44;62.38;101901.41;5416065;26;20239;-80